createdAt,value
2019-04-29T00:00:44.728Z,99.90
2019-04-29T00:03:13.264Z,99.90
2019-04-29T00:05:41.714Z,99.90
2019-04-29T00:08:10.259Z,99.90
2019-04-29T00:10:38.892Z,99.90
2019-04-29T00:13:07.412Z,99.90
2019-04-29T00:15:43.367Z,99.90
2019-04-29T00:18:16.249Z,99.90
2019-04-29T00:20:49.399Z,99.90
2019-04-29T00:23:17.909Z,99.90
2019-04-29T00:25:46.435Z,99.90
2019-04-29T00:28:15.248Z,99.90
2019-04-29T00:30:43.952Z,99.90
2019-04-29T00:33:12.494Z,99.90
2019-04-29T00:35:41.252Z,99.90
2019-04-29T00:38:17.358Z,99.90
2019-04-29T00:41:03.685Z,99.90
2019-04-29T00:43:46.057Z,99.90
2019-04-29T00:46:14.525Z,99.90
2019-04-29T00:48:43.062Z,99.90
2019-04-29T00:51:11.582Z,99.90
2019-04-29T00:53:40.416Z,99.90
2019-04-29T00:56:09.243Z,99.90
2019-04-29T00:58:37.702Z,99.90
2019-04-29T01:01:11.133Z,99.90
2019-04-29T01:03:41.217Z,99.90
2019-04-29T01:06:10.235Z,99.90
2019-04-29T01:08:38.769Z,99.90
2019-04-29T01:11:07.328Z,99.90
2019-04-29T01:13:35.775Z,99.90
2019-04-29T01:16:04.333Z,99.90
2019-04-29T01:18:32.869Z,99.90
2019-04-29T01:21:01.357Z,99.90
2019-04-29T01:23:29.841Z,99.90
2019-04-29T01:26:00.420Z,99.90
2019-04-29T01:28:30.525Z,99.90
2019-04-29T01:31:08.211Z,99.90
2019-04-29T01:33:36.673Z,99.90
2019-04-29T01:36:21.975Z,99.90
2019-04-29T01:38:52.069Z,99.90
2019-04-29T01:41:37.741Z,99.90
2019-04-29T01:44:07.835Z,99.90
2019-04-29T01:46:36.273Z,99.90
2019-04-29T01:49:04.893Z,99.90
2019-04-29T01:51:33.342Z,99.90
2019-04-29T01:54:01.885Z,99.90
2019-04-29T01:56:30.344Z,99.90
2019-04-29T01:58:58.812Z,99.90
2019-04-29T02:01:27.263Z,99.90
2019-04-29T02:03:55.731Z,99.90
2019-04-29T02:06:24.248Z,99.90
2019-04-29T02:08:54.116Z,99.90
2019-04-29T02:11:22.640Z,99.90
2019-04-29T02:13:51.081Z,99.90
2019-04-29T02:16:19.575Z,99.90
2019-04-29T02:18:48.018Z,99.90
2019-04-29T02:21:16.481Z,99.90
2019-04-29T02:23:46.677Z,99.90
2019-04-29T02:26:15.132Z,99.90
2019-04-29T02:28:43.594Z,99.90
2019-04-29T02:31:30.009Z,99.90
2019-04-29T02:33:58.470Z,99.90
2019-04-29T02:36:29.918Z,99.90
2019-04-29T02:39:04.881Z,99.90
2019-04-29T02:41:35.370Z,99.90
2019-04-29T02:44:05.607Z,99.90
2019-04-29T02:46:34.084Z,99.90
2019-04-29T02:49:02.550Z,99.90
2019-04-29T02:51:48.020Z,99.90
2019-04-29T02:54:17.067Z,99.90
2019-04-29T02:56:49.894Z,99.90
2019-04-29T02:59:36.639Z,99.90
2019-04-29T03:02:10.010Z,99.90
2019-04-29T03:04:52.531Z,99.90
2019-04-29T03:07:21.796Z,99.90
2019-04-29T03:09:50.434Z,99.90
2019-04-29T03:12:18.980Z,99.90
2019-04-29T03:14:47.562Z,99.90
2019-04-29T03:17:18.957Z,99.90
2019-04-29T03:20:04.062Z,99.90
2019-04-29T03:22:32.748Z,99.90
2019-04-29T03:25:01.533Z,99.90
2019-04-29T03:27:30.051Z,99.90
2019-04-29T03:29:58.527Z,99.90
2019-04-29T03:32:26.997Z,99.90
2019-04-29T03:34:55.558Z,99.90
2019-04-29T03:37:24.334Z,99.90
2019-04-29T03:39:52.876Z,99.90
2019-04-29T03:42:21.332Z,99.90
2019-04-29T03:44:50.043Z,99.90
2019-04-29T03:47:19.195Z,99.90
2019-04-29T03:49:47.858Z,99.90
2019-04-29T03:52:16.389Z,99.90
2019-04-29T03:54:44.856Z,99.90
2019-04-29T03:57:14.798Z,99.90
2019-04-29T03:59:43.266Z,99.90
2019-04-29T04:02:16.018Z,99.90
2019-04-29T04:04:46.137Z,99.90
2019-04-29T04:07:28.259Z,99.90
2019-04-29T04:09:56.744Z,99.90
2019-04-29T04:12:25.210Z,99.90
2019-04-29T04:14:53.754Z,99.90
2019-04-29T04:17:40.464Z,99.90
2019-04-29T04:20:09.439Z,99.90
2019-04-29T04:22:49.738Z,99.90
2019-04-29T04:25:18.531Z,99.90
2019-04-29T04:27:48.009Z,99.90
2019-04-29T04:30:17.558Z,99.90
2019-04-29T04:32:46.428Z,99.90
2019-04-29T04:35:15.961Z,99.90
2019-04-29T04:37:44.551Z,99.90
2019-04-29T04:40:15.671Z,99.90
2019-04-29T04:42:44.115Z,99.90
2019-04-29T04:45:13.224Z,99.90
2019-04-29T04:47:41.776Z,99.90
2019-04-29T04:50:10.767Z,99.90
2019-04-29T04:52:39.244Z,99.90
2019-04-29T04:55:08.293Z,99.90
2019-04-29T04:57:37.088Z,99.90
2019-04-29T05:00:22.760Z,99.90
2019-04-29T05:02:51.245Z,99.90
2019-04-29T05:05:20.035Z,99.90
2019-04-29T05:07:48.522Z,99.90
2019-04-29T05:10:16.989Z,99.90
2019-04-29T05:12:45.463Z,99.90
2019-04-29T05:15:14.182Z,99.90
2019-04-29T05:17:42.648Z,99.90
2019-04-29T05:20:11.157Z,99.90
2019-04-29T05:22:41.274Z,99.90
2019-04-29T05:25:09.991Z,99.90
2019-04-29T05:27:38.445Z,99.90
2019-04-29T05:30:07.597Z,99.90
2019-04-29T05:32:36.111Z,99.90
2019-04-29T05:35:07.967Z,99.90
2019-04-29T05:37:43.771Z,99.90
2019-04-29T05:40:14.036Z,99.90
2019-04-29T05:42:42.841Z,99.90
2019-04-29T05:45:13.189Z,99.90
2019-04-29T05:47:43.344Z,99.90
2019-04-29T05:50:31.810Z,99.90
2019-04-29T05:53:01.931Z,99.90
2019-04-29T05:55:30.739Z,99.90
2019-04-29T05:58:11.281Z,99.90
2019-04-29T06:00:41.401Z,99.90
2019-04-29T06:03:09.893Z,99.90
2019-04-29T06:05:38.347Z,99.90
2019-04-29T06:08:06.887Z,99.90
2019-04-29T06:10:35.429Z,99.90
2019-04-29T06:13:03.988Z,99.90
2019-04-29T06:15:32.433Z,99.90
2019-04-29T06:18:00.881Z,99.90
2019-04-29T06:20:29.353Z,99.90
2019-04-29T06:22:58.172Z,99.90
2019-04-29T06:25:26.665Z,99.90
2019-04-29T06:27:55.208Z,99.90
2019-04-29T06:30:23.737Z,99.90
2019-04-29T06:32:52.224Z,99.90
2019-04-29T06:35:20.771Z,99.90
2019-04-29T06:37:49.231Z,99.90
2019-04-29T06:40:17.847Z,99.90
2019-04-29T06:42:49.426Z,99.90
2019-04-29T06:45:16.776Z,99.90
2019-04-29T06:47:45.322Z,99.90
2019-04-29T06:50:14.045Z,99.90
2019-04-29T06:52:42.499Z,99.90
2019-04-29T06:55:11.039Z,99.90
2019-04-29T06:57:39.485Z,99.90
2019-04-29T07:00:08.871Z,99.90
2019-04-29T07:02:37.678Z,99.90
2019-04-29T07:05:07.299Z,99.90
2019-04-29T07:07:35.841Z,99.90
2019-04-29T07:10:05.345Z,99.90
2019-04-29T07:12:33.886Z,99.90
2019-04-29T07:15:02.860Z,99.90
2019-04-29T07:17:31.416Z,99.90
2019-04-29T07:20:02.158Z,99.90
2019-04-29T07:22:31.222Z,99.90
2019-04-29T07:24:59.907Z,99.90
2019-04-29T07:27:28.368Z,99.90
2019-04-29T07:29:56.837Z,99.90
2019-04-29T07:32:25.316Z,99.90
2019-04-29T07:34:53.799Z,99.90
2019-04-29T07:37:22.347Z,99.90
2019-04-29T07:39:50.816Z,99.90
2019-04-29T07:42:19.350Z,99.90
2019-04-29T07:45:05.656Z,99.90
2019-04-29T07:47:34.920Z,99.90
2019-04-29T07:50:04.376Z,99.90
2019-04-29T07:52:32.881Z,99.90
2019-04-29T07:55:01.353Z,99.90
2019-04-29T07:57:29.841Z,99.90
2019-04-29T07:59:58.296Z,99.90
2019-04-29T08:02:26.784Z,99.90
2019-04-29T08:04:55.249Z,99.90
2019-04-29T08:07:25.063Z,99.90
2019-04-29T08:09:53.689Z,99.90
2019-04-29T08:12:23.011Z,99.90
2019-04-29T08:14:53.514Z,99.90
2019-04-29T08:17:23.263Z,99.90
2019-04-29T08:19:51.754Z,99.90
2019-04-29T08:22:22.784Z,99.90
2019-04-29T08:24:51.882Z,99.90
2019-04-29T08:27:21.066Z,99.90
2019-04-29T08:29:49.853Z,99.90
2019-04-29T08:32:18.300Z,99.90
2019-04-29T08:34:46.782Z,99.90
2019-04-29T08:37:15.455Z,99.90
2019-04-29T08:39:43.925Z,99.90
2019-04-29T08:42:14.123Z,99.90
2019-04-29T08:44:44.625Z,99.90
2019-04-29T08:47:17.815Z,99.90
2019-04-29T08:49:46.408Z,99.90
2019-04-29T08:52:15.040Z,99.90
2019-04-29T08:54:43.481Z,99.90
2019-04-29T08:57:12.321Z,99.90
2019-04-29T08:59:40.787Z,99.90
2019-04-29T09:02:10.260Z,99.90
2019-04-29T09:04:52.967Z,99.90
2019-04-29T09:07:12.648Z,99.90
2019-04-29T09:09:40.198Z,99.90
2019-04-29T09:12:08.679Z,99.90
2019-04-29T09:14:37.161Z,99.90
2019-04-29T09:17:19.584Z,99.90
2019-04-29T09:19:35.861Z,99.90
2019-04-29T09:22:06.052Z,99.90
2019-04-29T09:24:35.389Z,99.90
2019-04-29T09:27:11.426Z,99.90
2019-04-29T09:29:39.912Z,99.90
2019-04-29T09:32:08.441Z,99.90
2019-04-29T09:34:36.897Z,99.90
2019-04-29T09:37:05.527Z,99.90
2019-04-29T09:39:43.355Z,99.90
2019-04-29T09:42:24.159Z,99.90
2019-04-29T09:45:24.336Z,99.90
2019-04-29T09:47:52.143Z,99.90
2019-04-29T09:50:20.677Z,99.90
2019-04-29T09:52:49.219Z,99.90
2019-04-29T09:55:19.215Z,99.90
2019-04-29T09:57:47.687Z,99.90
2019-04-29T10:00:19.284Z,99.90
2019-04-29T10:02:55.471Z,99.90
2019-04-29T10:05:25.582Z,99.90
2019-04-29T10:07:54.050Z,99.90
2019-04-29T10:10:22.536Z,99.90
2019-04-29T10:12:53.865Z,99.90
2019-04-29T10:15:23.259Z,99.90
2019-04-29T10:18:08.731Z,99.90
2019-04-29T10:20:38.817Z,99.90
2019-04-29T10:23:07.654Z,99.90
2019-04-29T10:25:36.255Z,99.90
2019-04-29T10:28:05.460Z,99.90
2019-04-29T10:30:34.015Z,99.90
2019-04-29T10:33:02.521Z,99.90
2019-04-29T10:35:30.977Z,99.90
2019-04-29T10:38:02.791Z,99.90
2019-04-29T10:40:46.492Z,99.90
2019-04-29T10:43:28.907Z,99.90
2019-04-29T10:46:04.843Z,99.90
2019-04-29T10:48:35.111Z,99.90
2019-04-29T10:51:05.123Z,99.90
2019-04-29T10:53:34.119Z,99.90
2019-04-29T10:56:05.733Z,99.90
2019-04-29T10:58:35.558Z,99.90
2019-04-29T11:01:42.399Z,99.90
2019-04-29T11:04:10.929Z,99.90
2019-04-29T11:06:39.457Z,99.90
2019-04-29T11:09:14.453Z,99.90
2019-04-29T11:11:44.282Z,99.90
2019-04-29T11:14:12.750Z,99.90
2019-04-29T11:16:46.393Z,99.90
2019-04-29T11:19:11.471Z,99.90
2019-04-29T11:21:39.954Z,99.90
2019-04-29T11:24:19.450Z,99.90
2019-04-29T11:26:49.914Z,99.90
2019-04-29T11:29:22.019Z,98.30
2019-04-29T11:31:54.162Z,99.20
2019-04-29T11:34:24.560Z,99.60
2019-04-29T11:36:53.103Z,99.40
2019-04-29T11:39:21.741Z,99.30
2019-04-29T11:41:54.279Z,98.90
2019-04-29T11:44:21.840Z,98.90
2019-04-29T11:46:50.982Z,98.70
2019-04-29T11:49:21.395Z,98.60
2019-04-29T11:52:08.635Z,98.30
2019-04-29T11:54:20.195Z,98.50
2019-04-29T11:56:48.650Z,98.20
2019-04-29T11:59:22.243Z,98.10
2019-04-29T12:01:53.507Z,97.50
2019-04-29T12:04:28.727Z,98.00
2019-04-29T12:06:58.108Z,97.20
2019-04-29T12:09:30.422Z,97.60
2019-04-29T12:11:57.249Z,97.10
2019-04-29T12:14:38.051Z,97.30
2019-04-29T12:17:26.660Z,97.00
2019-04-29T12:20:05.708Z,96.90
2019-04-29T12:22:47.388Z,96.90
2019-04-29T12:25:06.550Z,96.80
2019-04-29T12:27:35.027Z,96.70
2019-04-29T12:30:07.445Z,96.70
2019-04-29T12:32:43.342Z,96.90
2019-04-29T12:35:12.293Z,96.80
2019-04-29T12:37:51.464Z,96.10
2019-04-29T12:40:21.635Z,96.10
2019-04-29T12:42:55.298Z,95.90
2019-04-29T12:45:25.515Z,96.00
2019-04-29T12:47:54.145Z,96.30
2019-04-29T12:50:23.156Z,96.20
2019-04-29T12:52:51.887Z,96.30
2019-04-29T12:55:43.007Z,96.20
2019-04-29T12:57:55.142Z,95.90
2019-04-29T13:00:25.263Z,96.20
2019-04-29T13:03:01.915Z,96.20
2019-04-29T13:05:32.179Z,95.80
2019-04-29T13:08:02.275Z,95.90
2019-04-29T13:10:42.543Z,95.90
2019-04-29T13:13:08.941Z,95.80
2019-04-29T13:15:39.422Z,96.10
2019-04-29T13:18:13.477Z,96.60
2019-04-29T13:20:41.610Z,97.00
2019-04-29T13:23:17.479Z,97.50
2019-04-29T13:25:40.498Z,97.90
2019-04-29T13:28:09.028Z,97.90
2019-04-29T13:30:37.465Z,97.60
2019-04-29T13:33:15.938Z,97.60
2019-04-29T13:35:36.489Z,98.00
2019-04-29T13:38:05.212Z,98.30
2019-04-29T13:40:37.826Z,99.30
2019-04-29T13:43:04.105Z,99.00
2019-04-29T13:45:37.921Z,99.40
2019-04-29T13:48:09.180Z,99.40
2019-04-29T13:50:45.123Z,99.60
2019-04-29T13:53:16.599Z,99.90
2019-04-29T13:55:49.650Z,99.90
2019-04-29T13:58:14.471Z,99.90
2019-04-29T14:00:44.575Z,99.90
2019-04-29T14:03:14.701Z,99.90
2019-04-29T14:05:43.177Z,99.90
2019-04-29T14:08:11.945Z,99.90
2019-04-29T14:10:40.407Z,99.90
2019-04-29T14:13:13.453Z,99.90
2019-04-29T14:15:40.498Z,99.90
2019-04-29T14:18:11.636Z,99.90
2019-04-29T14:20:39.329Z,99.90
2019-04-29T14:23:07.768Z,99.90
2019-04-29T14:25:36.261Z,99.90
2019-04-29T14:28:04.846Z,99.90
2019-04-29T14:30:38.813Z,99.90
2019-04-29T14:33:03.935Z,99.90
2019-04-29T14:35:43.777Z,99.90
2019-04-29T14:38:13.242Z,99.90
2019-04-29T14:40:42.805Z,99.90
2019-04-29T14:43:32.129Z,99.90
2019-04-29T14:46:04.425Z,99.90
2019-04-29T14:48:42.118Z,99.90
2019-04-29T14:51:04.925Z,99.90
2019-04-29T14:53:33.393Z,99.90
2019-04-29T14:56:01.863Z,99.90
2019-04-29T14:58:30.399Z,99.90
2019-04-29T15:01:17.010Z,99.90
2019-04-29T15:03:59.297Z,99.90
2019-04-29T15:06:28.919Z,99.90
2019-04-29T15:08:57.833Z,99.90
2019-04-29T15:11:31.939Z,99.90
2019-04-29T15:14:00.445Z,99.90
2019-04-29T15:16:45.913Z,99.90
2019-04-29T15:19:32.571Z,99.90
2019-04-29T15:22:02.726Z,98.90
2019-04-29T15:24:34.005Z,98.60
2019-04-29T15:27:01.411Z,97.60
2019-04-29T15:29:29.857Z,97.50
2019-04-29T15:31:58.335Z,96.90
2019-04-29T15:34:26.782Z,97.90
2019-04-29T15:36:55.254Z,98.20
2019-04-29T15:39:25.330Z,98.00
2019-04-29T15:41:54.786Z,97.70
2019-04-29T15:44:23.896Z,98.50
2019-04-29T15:46:52.527Z,97.80
2019-04-29T15:49:24.730Z,98.40
2019-04-29T15:51:51.164Z,99.10
2019-04-29T15:54:19.622Z,99.40
2019-04-29T15:56:48.101Z,99.80
2019-04-29T15:59:16.692Z,99.90
2019-04-29T16:01:45.163Z,99.90
2019-04-29T16:04:15.280Z,99.90
2019-04-29T16:06:45.627Z,99.90
2019-04-29T16:09:15.737Z,99.90
2019-04-29T16:11:58.118Z,99.90
2019-04-29T16:14:26.671Z,99.90
2019-04-29T16:16:55.457Z,99.90
2019-04-29T16:19:23.930Z,99.90
2019-04-29T16:21:52.534Z,99.90
2019-04-29T16:24:37.451Z,99.90
2019-04-29T16:26:53.715Z,99.90
2019-04-29T16:29:21.671Z,99.90
2019-04-29T16:31:54.968Z,99.90
2019-04-29T16:34:20.335Z,99.90
2019-04-29T16:36:49.893Z,99.90
2019-04-29T16:39:19.049Z,99.90
2019-04-29T16:41:58.124Z,99.90
2019-04-29T16:44:34.783Z,99.90
2019-04-29T16:46:52.497Z,99.90
2019-04-29T16:49:21.147Z,99.90
2019-04-29T16:51:53.699Z,99.90
2019-04-29T16:54:24.626Z,99.90
2019-04-29T16:56:49.993Z,99.90
2019-04-29T16:59:18.528Z,99.90
2019-04-29T17:01:47.064Z,99.90
2019-04-29T17:04:15.529Z,99.90
2019-04-29T17:07:10.664Z,99.90
2019-04-29T17:09:32.644Z,99.90
2019-04-29T17:12:02.244Z,99.90
2019-04-29T17:14:30.925Z,99.90
2019-04-29T17:16:59.487Z,99.90
2019-04-29T17:19:28.360Z,99.90
2019-04-29T17:22:23.727Z,99.90
2019-04-29T17:24:27.675Z,99.90
2019-04-29T17:26:58.149Z,99.90
2019-04-29T17:29:39.363Z,99.90
2019-04-29T17:32:12.825Z,99.90
2019-04-29T17:34:57.964Z,99.90
2019-04-29T17:37:12.607Z,99.90
2019-04-29T17:39:41.074Z,99.90
2019-04-29T17:42:09.553Z,99.90
2019-04-29T17:44:45.545Z,99.90
2019-04-29T17:47:32.023Z,99.90
2019-04-29T17:50:06.623Z,99.90
2019-04-29T17:52:35.274Z,99.90
2019-04-29T17:55:10.016Z,99.90
2019-04-29T17:57:40.153Z,99.90
2019-04-29T18:00:11.404Z,99.90
2019-04-29T18:03:00.894Z,99.90
2019-04-29T18:05:52.282Z,99.90
2019-04-29T18:08:05.751Z,99.90
2019-04-29T18:10:38.613Z,99.90
2019-04-29T18:13:06.588Z,99.90
2019-04-29T18:15:47.172Z,99.90
2019-04-29T18:18:12.381Z,99.90
2019-04-29T18:20:59.558Z,99.90
2019-04-29T18:23:32.845Z,99.90
2019-04-29T18:26:05.779Z,99.90
2019-04-29T18:28:35.822Z,99.90
2019-04-29T18:31:06.591Z,99.90
2019-04-29T18:33:35.356Z,99.90
2019-04-29T18:36:06.817Z,99.90
2019-04-29T18:38:35.007Z,99.90
2019-04-29T18:41:03.594Z,99.90
2019-04-29T18:43:32.034Z,99.90
2019-04-29T18:46:00.502Z,99.90
2019-04-29T18:48:28.966Z,99.90
2019-04-29T18:50:57.448Z,99.90
2019-04-29T18:53:25.907Z,99.90
2019-04-29T18:55:55.049Z,99.90
2019-04-29T18:58:24.996Z,99.90
2019-04-29T19:00:56.204Z,99.90
2019-04-29T19:03:29.796Z,99.90
2019-04-29T19:05:57.534Z,99.90
2019-04-29T19:08:29.020Z,99.90
2019-04-29T19:10:56.853Z,99.90
2019-04-29T19:13:26.064Z,99.90
2019-04-29T19:15:58.786Z,99.90
2019-04-29T19:18:25.489Z,99.90
2019-04-29T19:20:54.857Z,99.90
2019-04-29T19:23:29.236Z,99.90
2019-04-29T19:25:54.759Z,99.90
2019-04-29T19:28:30.921Z,99.90
2019-04-29T19:30:56.052Z,99.90
2019-04-29T19:33:25.239Z,99.90
2019-04-29T19:35:55.441Z,99.90
2019-04-29T19:38:25.349Z,99.90
2019-04-29T19:40:54.033Z,99.90
2019-04-29T19:43:22.494Z,99.90
2019-04-29T19:45:50.941Z,99.90
2019-04-29T19:48:22.562Z,99.90
2019-04-29T19:51:06.438Z,99.90
2019-04-29T19:53:19.801Z,99.90
2019-04-29T19:55:48.357Z,99.90
2019-04-29T19:58:17.414Z,99.90
2019-04-29T20:00:47.581Z,99.90
2019-04-29T20:03:23.697Z,99.90
2019-04-29T20:05:48.959Z,99.90
2019-04-29T20:08:37.458Z,99.90
2019-04-29T20:10:51.574Z,99.90
2019-04-29T20:13:18.920Z,99.90
2019-04-29T20:16:12.585Z,99.90
2019-04-29T20:18:58.837Z,99.90
2019-04-29T20:21:24.707Z,99.90
2019-04-29T20:23:52.906Z,99.90
2019-04-29T20:27:19.007Z,99.90
2019-04-29T20:28:51.126Z,99.90
2019-04-29T20:31:22.360Z,99.90
2019-04-29T20:33:49.603Z,99.90
2019-04-29T20:36:32.994Z,99.90
2019-04-29T20:38:48.687Z,99.90
2019-04-29T20:41:24.970Z,99.90
2019-04-29T20:43:47.786Z,99.90
2019-04-29T20:46:18.019Z,99.90
2019-04-29T20:48:50.438Z,99.90
2019-04-29T20:51:17.063Z,99.90
2019-04-29T20:53:47.783Z,99.90
2019-04-29T20:56:23.726Z,99.90
2019-04-29T20:58:46.973Z,99.90
2019-04-29T21:01:17.361Z,99.90
2019-04-29T21:03:51.113Z,99.90
2019-04-29T21:06:16.414Z,99.90
2019-04-29T21:08:50.888Z,99.90
2019-04-29T21:11:21.075Z,99.90
2019-04-29T21:14:03.329Z,99.90
2019-04-29T21:16:33.444Z,99.90
2019-04-29T21:19:08.508Z,99.90
2019-04-29T21:21:36.788Z,99.90
2019-04-29T21:24:14.168Z,99.90
2019-04-29T21:26:37.883Z,99.90
2019-04-29T21:29:10.763Z,99.90
2019-04-29T21:31:37.437Z,99.90
2019-04-29T21:34:06.050Z,99.90
2019-04-29T21:36:42.409Z,99.90
2019-04-29T21:39:12.565Z,99.90
2019-04-29T21:41:42.713Z,99.90
2019-04-29T21:44:11.191Z,99.90
2019-04-29T21:46:39.719Z,99.90
2019-04-29T21:49:11.665Z,99.90
2019-04-29T21:51:41.702Z,99.90
2019-04-29T21:54:09.667Z,99.90
2019-04-29T21:56:39.742Z,99.90
2019-04-29T21:59:11.951Z,99.90
2019-04-29T22:01:38.967Z,99.90
2019-04-29T22:04:07.462Z,99.90
2019-04-29T22:06:35.927Z,99.90
2019-04-29T22:09:07.756Z,99.90
2019-04-29T22:11:43.092Z,99.90
2019-04-29T22:14:09.912Z,99.90
2019-04-29T22:16:36.835Z,99.90
2019-04-29T22:19:05.334Z,99.90
2019-04-29T22:21:35.872Z,99.90
2019-04-29T22:24:06.183Z,99.90
2019-04-29T22:26:35.057Z,99.90
2019-04-29T22:29:03.891Z,99.90
2019-04-29T22:31:35.744Z,99.90
2019-04-29T22:34:03.075Z,99.90
2019-04-29T22:36:31.800Z,99.90
2019-04-29T22:39:00.336Z,99.90
2019-04-29T22:41:42.249Z,99.90
2019-04-29T22:44:16.758Z,99.90
2019-04-29T22:46:44.774Z,99.90
2019-04-29T22:49:12.893Z,99.90
2019-04-29T22:51:41.402Z,99.90
2019-04-29T22:54:09.850Z,99.90
2019-04-29T22:56:40.538Z,99.90
2019-04-29T22:59:08.532Z,99.90
2019-04-29T23:01:42.061Z,99.90
2019-04-29T23:04:09.620Z,99.90
2019-04-29T23:06:39.898Z,99.90
2019-04-29T23:09:11.825Z,99.90
2019-04-29T23:11:39.361Z,99.90
2019-04-29T23:14:10.081Z,99.90
2019-04-29T23:16:38.439Z,99.90
2019-04-29T23:19:09.811Z,99.90
2019-04-29T23:21:50.610Z,99.90
2019-04-29T23:24:26.483Z,99.90
2019-04-29T23:26:55.033Z,99.90
2019-04-29T23:29:25.408Z,99.90
2019-04-29T23:31:55.392Z,99.90
2019-04-29T23:34:27.777Z,99.90
2019-04-29T23:36:54.530Z,99.90
2019-04-29T23:39:24.614Z,99.90
2019-04-29T23:41:55.370Z,99.90
2019-04-29T23:44:23.705Z,99.90
2019-04-29T23:46:52.162Z,99.90
2019-04-29T23:49:20.721Z,99.90
2019-04-29T23:51:49.187Z,99.90
2019-04-29T23:54:17.643Z,99.90
2019-04-29T23:57:03.087Z,99.90
2019-04-29T23:59:35.118Z,99.90
